TimeCST,TemperatureF,Dew PointF,Humidity,Sea Level PressureIn,VisibilityMPH,Wind Direction,Wind SpeedMPH,Gust SpeedMPH,PrecipitationIn,Events,Conditions,WindDirDegrees,DateUTC
12:52 AM,18.0,5.0,57,30.20,10.0,SSW,11.5,-,N/A,,Clear,200,2013-01-25 06:52:00
1:52 AM,16.0,5.0,62,30.21,10.0,SW,5.8,-,N/A,,Partly Cloudy,220,2013-01-25 07:52:00
2:52 AM,15.1,5.0,64,30.18,10.0,SSW,6.9,-,N/A,,Clear,200,2013-01-25 08:52:00
3:52 AM,14.0,5.0,67,30.15,10.0,SW,5.8,-,N/A,,Clear,220,2013-01-25 09:52:00
4:52 AM,12.9,5.0,71,30.14,10.0,SW,3.5,-,N/A,,Clear,220,2013-01-25 10:52:00
5:52 AM,10.9,5.0,77,30.16,10.0,Calm,Calm,-,N/A,,Clear,0,2013-01-25 11:52:00
6:52 AM,8.1,3.9,83,30.16,10.0,Calm,Calm,-,N/A,,Clear,0,2013-01-25 12:52:00
7:52 AM,9.0,3.9,80,30.18,10.0,WNW,6.9,-,N/A,,Clear,300,2013-01-25 13:52:00
8:52 AM,19.0,12.9,77,30.19,10.0,Calm,Calm,-,N/A,,Clear,0,2013-01-25 14:52:00
9:52 AM,-9999,-9999,N/A,30.15,-9999.0,North,-9999.0,-,N/A,,Unknown,0,2013-01-25 15:52:00
9:54 AM,-9999,-9999,N/A,30.15,10.0,WNW,5.8,-,N/A,,Clear,300,2013-01-25 15:54:00
10:52 AM,-9999,-9999,N/A,30.16,10.0,NW,5.8,-,N/A,,Clear,310,2013-01-25 16:52:00
11:52 AM,-9999,-9999,N/A,30.17,-9999.0,North,-9999.0,-,N/A,,Unknown,0,2013-01-25 17:52:00
12:04 PM,-9999,-9999,N/A,30.16,10.0,NW,13.8,-,N/A,,Clear,310,2013-01-25 18:04:00
12:52 PM,-9999,-9999,N/A,30.14,10.0,NW,13.8,-,N/A,,Clear,320,2013-01-25 18:52:00
1:52 PM,-9999,-9999,N/A,30.13,-9999.0,North,-9999.0,-,N/A,,Unknown,0,2013-01-25 19:52:00
2:52 PM,37.9,24.1,57,30.14,10.0,NNW,16.1,-,N/A,,Clear,330,2013-01-25 20:52:00
3:52 PM,36.0,24.1,62,30.16,10.0,NNW,12.7,-,N/A,,Clear,330,2013-01-25 21:52:00
4:52 PM,32.0,23.0,69,30.18,10.0,North,16.1,-,N/A,,Clear,350,2013-01-25 22:52:00
5:52 PM,28.0,19.9,72,30.19,10.0,NNW,11.5,-,N/A,,Clear,330,2013-01-25 23:52:00
6:52 PM,26.1,19.0,75,30.21,10.0,NW,9.2,-,N/A,,Clear,320,2013-01-26 00:52:00
7:52 PM,21.9,16.0,78,30.22,10.0,North,10.4,-,N/A,,Clear,350,2013-01-26 01:52:00
8:52 PM,21.0,14.0,74,30.25,10.0,North,8.1,-,N/A,,Clear,10,2013-01-26 02:52:00
9:52 PM,19.9,12.0,71,30.26,10.0,NE,9.2,-,N/A,,Clear,40,2013-01-26 03:52:00
10:52 PM,16.0,7.0,68,30.27,10.0,NE,8.1,-,N/A,,Clear,50,2013-01-26 04:52:00
11:52 PM,14.0,5.0,67,30.28,10.0,ENE,6.9,-,N/A,,Clear,60,2013-01-26 05:52:00